Aeroporto :
LOGIN :

Iscrizione | Disclaimer

   EN    FR    IT 

 










Sommario :    VFR   VFR Marginale   IFR   IFR Intensivo   IFR Molto Intensivo
Visibilità : 
Base nubi : 
>= 8 km
>= 3000ft
5 / 8 km
1000 / 3000 ft
1500m / 5 km
500 / 1000 ft
800 / 1500m
200 / 500 ft
< 800m
< 200 ft
Simboli :   Temporali  Nebbia  Neve Forte  Precipitazioni Forti  Vento > 20 kt
SIGMETs :   Varie  Temporali  Ghiacco  Turbolenza  Onda orograficha  Ceneri Vulcaniche






- Altitudine del aeroporto : 622 ft
- Codice IATA : BRS


EGGD - Bristol Int.

ULTIMO METAR :
  • 180350Z AUTO 25011KT 9999 SCT011/// BKN018/// BKN028/// //////TCU 04/03 Q1019

METARs OBSOLETI :
  • 180320Z AUTO 23013KT 9999 -RA BKN017/// BKN026/// //////TCU 04/03 Q1019
  • 180250Z AUTO 23009KT 9999 BKN020 04/02 Q1019
  • 180220Z AUTO 23013KT 200V270 9999 -RA SCT015 BKN021 BKN029 04/02 Q1019
  • 180150Z AUTO 23010KT 9999 SCT022 04/02 Q1019
  • 180120Z AUTO 23010KT 9999 FEW010 SCT021 04/03 Q1019

TAF TAF EGGD
Valido dal 18 a 00 ore il 19 a 00 ore UTC


172258Z 1800/1824 25015KT 9999 FEW010 SCT025
TEMPO 1800/1822 26018G32KT 6000 SHRA
PROB30
TEMPO 1800/1814 4000 +SHRAGS BKN010
PROB40
TEMPO 1814/1817 26022G42KT 3000 +SHRAGS BKN008 BKN020CB
PROB30
TEMPO 1817/1822 4000 +SHRAGS BKN010
ATIS : +44 1275 473 666



MetMap, La meteo Aeronautica in un colpo d'occhio ! - Copyright ORBIFLY Dicembre 2007 - Disclaimer

ORBIFLY MET'MAP TEAM :

Programmazione e sviluppo : Alexandra Zaïnal
Concezione : Baudouin d'Aumeries
Aiuto per la programmazione : Marc-Olivier Méhu
Supporto tecnico e logistico : Manuel Goepfert
Aiuto per la traduzione : Arnaldo La Scala

Contatto : metmap@orbifly.com




FONTI E CREDITI :

   NOAA